KJBR

Jonesboro Municipal Airport

Airport
ICAO code
KJBR
IATA Code
JBR
Summary
ICAO Region
NAM
ICAO Territory
Location

Jonesboro, Arkansas

Serving
Jonesboro
Elevation
262 ft
Coordinates
35° 49' 54" N , 90° 38' 49" W
KCC
Metar
KJBR 181653Z AUTO 18015G23KT 10SM FEW020 SCT029 BKN049 26/20 A2997 RMK AO2 SLP147 T02610200 $

Municipal airport serving Jonesboro, Arkansas, USA, located 3 nm east of the city's business district.

 

Airport map

Aerial View

SKYbrary Partners:

Safety knowledge contributed by: